sensor_id;sensor_type;location;lat;lon;timestamp;temperature;humidity
83466;DHT22;73393;51.946;20.140;2024-02-23T00:01:31;8.50;74.30
83466;DHT22;73393;51.946;20.140;2024-02-23T00:03:56;8.50;74.00
83466;DHT22;73393;51.946;20.140;2024-02-23T00:06:22;8.60;74.30
83466;DHT22;73393;51.946;20.140;2024-02-23T00:08:54;8.50;74.20
83466;DHT22;73393;51.946;20.140;2024-02-23T00:11:20;8.50;74.50
83466;DHT22;73393;51.946;20.140;2024-02-23T00:13:46;8.50;74.00
83466;DHT22;73393;51.946;20.140;2024-02-23T00:16:12;8.50;74.20
83466;DHT22;73393;51.946;20.140;2024-02-23T00:18:38;8.60;74.00
83466;DHT22;73393;51.946;20.140;2024-02-23T00:21:04;8.60;74.20
83466;DHT22;73393;51.946;20.140;2024-02-23T00:23:30;8.60;73.70
83466;DHT22;73393;51.946;20.140;2024-02-23T00:25:55;8.60;74.10
83466;DHT22;73393;51.946;20.140;2024-02-23T00:28:21;8.60;74.40
83466;DHT22;73393;51.946;20.140;2024-02-23T00:30:47;8.60;74.20
83466;DHT22;73393;51.946;20.140;2024-02-23T00:33:12;8.60;74.50
83466;DHT22;73393;51.946;20.140;2024-02-23T00:35:38;8.50;74.30
83466;DHT22;73393;51.946;20.140;2024-02-23T00:38:04;8.50;74.50
83466;DHT22;73393;51.946;20.140;2024-02-23T00:40:29;8.60;74.80
83466;DHT22;73393;51.946;20.140;2024-02-23T00:42:55;8.60;74.60
83466;DHT22;73393;51.946;20.140;2024-02-23T00:45:20;8.60;74.30
83466;DHT22;73393;51.946;20.140;2024-02-23T00:47:47;8.60;74.50
83466;DHT22;73393;51.946;20.140;2024-02-23T00:50:13;8.60;74.50
83466;DHT22;73393;51.946;20.140;2024-02-23T00:52:39;8.60;74.80
83466;DHT22;73393;51.946;20.140;2024-02-23T00:55:05;8.60;74.70
83466;DHT22;73393;51.946;20.140;2024-02-23T00:57:31;8.50;74.90
83466;DHT22;73393;51.946;20.140;2024-02-23T00:59:57;8.50;75.10
83466;DHT22;73393;51.946;20.140;2024-02-23T01:02:23;8.60;74.80
83466;DHT22;73393;51.946;20.140;2024-02-23T01:04:48;8.60;74.50
83466;DHT22;73393;51.946;20.140;2024-02-23T01:07:14;8.60;75.00
83466;DHT22;73393;51.946;20.140;2024-02-23T01:09:39;8.60;74.90
83466;DHT22;73393;51.946;20.140;2024-02-23T01:12:05;8.60;74.70
83466;DHT22;73393;51.946;20.140;2024-02-23T01:14:31;8.60;75.20
83466;DHT22;73393;51.946;20.140;2024-02-23T01:16:57;8.60;75.10
83466;DHT22;73393;51.946;20.140;2024-02-23T01:19:22;8.60;75.10
83466;DHT22;73393;51.946;20.140;2024-02-23T01:21:49;8.60;75.00
83466;DHT22;73393;51.946;20.140;2024-02-23T01:24:21;8.60;75.20
83466;DHT22;73393;51.946;20.140;2024-02-23T01:26:46;8.60;75.30
83466;DHT22;73393;51.946;20.140;2024-02-23T01:29:12;8.60;75.20
83466;DHT22;73393;51.946;20.140;2024-02-23T01:31:37;8.70;75.60
83466;DHT22;73393;51.946;20.140;2024-02-23T01:34:03;8.70;75.30
83466;DHT22;73393;51.946;20.140;2024-02-23T01:36:29;8.70;75.80
83466;DHT22;73393;51.946;20.140;2024-02-23T01:38:54;8.60;75.40
83466;DHT22;73393;51.946;20.140;2024-02-23T01:41:20;8.70;75.50
83466;DHT22;73393;51.946;20.140;2024-02-23T01:43:46;8.70;75.40
83466;DHT22;73393;51.946;20.140;2024-02-23T01:46:11;8.70;75.60
83466;DHT22;73393;51.946;20.140;2024-02-23T01:48:37;8.80;75.30
83466;DHT22;73393;51.946;20.140;2024-02-23T01:51:03;8.80;75.40
83466;DHT22;73393;51.946;20.140;2024-02-23T01:53:29;8.80;75.50
83466;DHT22;73393;51.946;20.140;2024-02-23T01:55:56;8.80;75.10
83466;DHT22;73393;51.946;20.140;2024-02-23T01:58:22;8.80;75.40
83466;DHT22;73393;51.946;20.140;2024-02-23T02:00:49;8.80;75.40
83466;DHT22;73393;51.946;20.140;2024-02-23T02:03:14;8.80;75.60
83466;DHT22;73393;51.946;20.140;2024-02-23T02:05:40;8.80;75.90
83466;DHT22;73393;51.946;20.140;2024-02-23T02:08:06;8.80;75.80
83466;DHT22;73393;51.946;20.140;2024-02-23T02:10:31;8.80;75.60
83466;DHT22;73393;51.946;20.140;2024-02-23T02:13:06;8.80;75.70
83466;DHT22;73393;51.946;20.140;2024-02-23T02:15:31;8.80;75.80
83466;DHT22;73393;51.946;20.140;2024-02-23T02:17:57;8.80;75.90
83466;DHT22;73393;51.946;20.140;2024-02-23T02:20:25;8.80;76.40
83466;DHT22;73393;51.946;20.140;2024-02-23T02:22:53;8.80;76.50
83466;DHT22;73393;51.946;20.140;2024-02-23T02:25:19;8.90;76.20
83466;DHT22;73393;51.946;20.140;2024-02-23T02:27:45;8.90;76.20
83466;DHT22;73393;51.946;20.140;2024-02-23T02:30:12;8.90;76.30
83466;DHT22;73393;51.946;20.140;2024-02-23T02:32:37;8.90;76.00
83466;DHT22;73393;51.946;20.140;2024-02-23T02:35:04;8.90;76.40
83466;DHT22;73393;51.946;20.140;2024-02-23T02:37:29;8.90;76.80
83466;DHT22;73393;51.946;20.140;2024-02-23T02:39:55;8.90;77.20
83466;DHT22;73393;51.946;20.140;2024-02-23T02:42:20;9.00;77.20
83466;DHT22;73393;51.946;20.140;2024-02-23T02:44:46;9.00;77.20
83466;DHT22;73393;51.946;20.140;2024-02-23T02:47:11;9.00;77.60
83466;DHT22;73393;51.946;20.140;2024-02-23T02:49:39;9.00;77.80
83466;DHT22;73393;51.946;20.140;2024-02-23T02:52:05;9.00;78.10
83466;DHT22;73393;51.946;20.140;2024-02-23T02:54:32;9.00;78.40
83466;DHT22;73393;51.946;20.140;2024-02-23T02:56:57;9.00;78.80
83466;DHT22;73393;51.946;20.140;2024-02-23T02:59:24;9.00;79.10
83466;DHT22;73393;51.946;20.140;2024-02-23T03:01:49;9.00;79.40
83466;DHT22;73393;51.946;20.140;2024-02-23T03:04:15;9.00;79.20
83466;DHT22;73393;51.946;20.140;2024-02-23T03:06:40;9.00;79.10
83466;DHT22;73393;51.946;20.140;2024-02-23T03:09:06;9.00;79.40
83466;DHT22;73393;51.946;20.140;2024-02-23T03:11:32;9.00;79.60
83466;DHT22;73393;51.946;20.140;2024-02-23T03:13:58;9.00;79.70
83466;DHT22;73393;51.946;20.140;2024-02-23T03:16:23;9.10;80.00
83466;DHT22;73393;51.946;20.140;2024-02-23T03:18:51;9.10;80.40
83466;DHT22;73393;51.946;20.140;2024-02-23T03:21:17;9.10;80.60
83466;DHT22;73393;51.946;20.140;2024-02-23T03:23:42;9.10;80.90
83466;DHT22;73393;51.946;20.140;2024-02-23T03:26:08;9.00;81.40
83466;DHT22;73393;51.946;20.140;2024-02-23T03:28:34;9.00;81.70
83466;DHT22;73393;51.946;20.140;2024-02-23T03:31:02;9.00;81.60
83466;DHT22;73393;51.946;20.140;2024-02-23T03:33:28;9.10;81.60
83466;DHT22;73393;51.946;20.140;2024-02-23T03:35:53;9.10;82.00
83466;DHT22;73393;51.946;20.140;2024-02-23T03:38:20;9.10;81.90
83466;DHT22;73393;51.946;20.140;2024-02-23T03:40:46;9.10;81.90
83466;DHT22;73393;51.946;20.140;2024-02-23T03:43:11;9.10;82.10
83466;DHT22;73393;51.946;20.140;2024-02-23T03:45:37;9.10;82.30
83466;DHT22;73393;51.946;20.140;2024-02-23T03:48:04;9.10;82.30
83466;DHT22;73393;51.946;20.140;2024-02-23T03:50:30;9.10;82.20
83466;DHT22;73393;51.946;20.140;2024-02-23T03:52:55;9.20;82.20
83466;DHT22;73393;51.946;20.140;2024-02-23T03:55:21;9.10;82.30
83466;DHT22;73393;51.946;20.140;2024-02-23T03:57:47;9.10;82.50
83466;DHT22;73393;51.946;20.140;2024-02-23T04:00:13;9.10;82.70
83466;DHT22;73393;51.946;20.140;2024-02-23T04:02:39;9.10;82.90
83466;DHT22;73393;51.946;20.140;2024-02-23T04:05:05;9.20;83.30
83466;DHT22;73393;51.946;20.140;2024-02-23T04:07:31;9.20;83.50
83466;DHT22;73393;51.946;20.140;2024-02-23T04:09:56;9.20;83.80
83466;DHT22;73393;51.946;20.140;2024-02-23T04:12:22;9.20;84.20
83466;DHT22;73393;51.946;20.140;2024-02-23T04:14:48;9.20;84.90
83466;DHT22;73393;51.946;20.140;2024-02-23T04:17:14;9.10;85.40
83466;DHT22;73393;51.946;20.140;2024-02-23T04:19:43;9.10;86.10
83466;DHT22;73393;51.946;20.140;2024-02-23T04:22:09;9.10;87.00
83466;DHT22;73393;51.946;20.140;2024-02-23T04:24:41;9.00;87.80
83466;DHT22;73393;51.946;20.140;2024-02-23T04:27:07;9.00;88.50
83466;DHT22;73393;51.946;20.140;2024-02-23T04:29:33;9.00;89.20
83466;DHT22;73393;51.946;20.140;2024-02-23T04:32:00;8.90;89.60
83466;DHT22;73393;51.946;20.140;2024-02-23T04:34:25;8.90;90.30
83466;DHT22;73393;51.946;20.140;2024-02-23T04:36:51;8.90;90.60
83466;DHT22;73393;51.946;20.140;2024-02-23T04:39:17;8.80;90.70
83466;DHT22;73393;51.946;20.140;2024-02-23T04:41:42;8.80;91.30
83466;DHT22;73393;51.946;20.140;2024-02-23T04:44:08;8.70;91.70
83466;DHT22;73393;51.946;20.140;2024-02-23T04:46:34;8.70;92.30
83466;DHT22;73393;51.946;20.140;2024-02-23T04:49:00;8.60;92.80
83466;DHT22;73393;51.946;20.140;2024-02-23T04:51:26;8.60;93.30
83466;DHT22;73393;51.946;20.140;2024-02-23T04:53:52;8.60;93.50
83466;DHT22;73393;51.946;20.140;2024-02-23T04:56:18;8.60;93.70
83466;DHT22;73393;51.946;20.140;2024-02-23T04:58:44;8.60;93.70
83466;DHT22;73393;51.946;20.140;2024-02-23T05:01:10;8.60;93.90
83466;DHT22;73393;51.946;20.140;2024-02-23T05:03:36;8.50;94.20
83466;DHT22;73393;51.946;20.140;2024-02-23T05:06:03;8.50;94.60
83466;DHT22;73393;51.946;20.140;2024-02-23T05:08:29;8.50;94.80
83466;DHT22;73393;51.946;20.140;2024-02-23T05:10:58;8.40;95.00
83466;DHT22;73393;51.946;20.140;2024-02-23T05:13:24;8.40;95.30
83466;DHT22;73393;51.946;20.140;2024-02-23T05:15:50;8.40;95.50
83466;DHT22;73393;51.946;20.140;2024-02-23T05:18:15;8.40;95.60
83466;DHT22;73393;51.946;20.140;2024-02-23T05:20:41;8.40;95.70
83466;DHT22;73393;51.946;20.140;2024-02-23T05:23:07;8.40;95.80
83466;DHT22;73393;51.946;20.140;2024-02-23T05:25:32;8.40;96.10
83466;DHT22;73393;51.946;20.140;2024-02-23T05:27:58;8.40;96.10
83466;DHT22;73393;51.946;20.140;2024-02-23T05:30:24;8.40;96.10
83466;DHT22;73393;51.946;20.140;2024-02-23T05:32:50;8.40;95.80
83466;DHT22;73393;51.946;20.140;2024-02-23T05:35:16;8.40;96.00
83466;DHT22;73393;51.946;20.140;2024-02-23T05:37:41;8.40;96.10
83466;DHT22;73393;51.946;20.140;2024-02-23T05:40:07;8.30;96.00
83466;DHT22;73393;51.946;20.140;2024-02-23T05:42:38;8.30;96.50
83466;DHT22;73393;51.946;20.140;2024-02-23T05:45:05;8.30;96.70
83466;DHT22;73393;51.946;20.140;2024-02-23T05:47:34;8.20;97.00
83466;DHT22;73393;51.946;20.140;2024-02-23T05:50:00;8.30;97.00
83466;DHT22;73393;51.946;20.140;2024-02-23T05:52:25;8.20;97.20
83466;DHT22;73393;51.946;20.140;2024-02-23T05:54:51;8.20;97.30
83466;DHT22;73393;51.946;20.140;2024-02-23T05:57:17;8.20;97.30
83466;DHT22;73393;51.946;20.140;2024-02-23T05:59:42;8.20;97.50
83466;DHT22;73393;51.946;20.140;2024-02-23T06:02:08;8.20;97.50
83466;DHT22;73393;51.946;20.140;2024-02-23T06:04:33;8.10;97.50
83466;DHT22;73393;51.946;20.140;2024-02-23T06:06:59;8.20;97.80
83466;DHT22;73393;51.946;20.140;2024-02-23T06:09:26;8.20;97.70
83466;DHT22;73393;51.946;20.140;2024-02-23T06:11:51;8.20;97.60
83466;DHT22;73393;51.946;20.140;2024-02-23T06:14:17;8.20;97.60
83466;DHT22;73393;51.946;20.140;2024-02-23T06:16:43;8.20;97.80
83466;DHT22;73393;51.946;20.140;2024-02-23T06:19:08;8.20;97.80
83466;DHT22;73393;51.946;20.140;2024-02-23T06:21:34;8.20;97.70
83466;DHT22;73393;51.946;20.140;2024-02-23T06:23:59;8.20;97.80
83466;DHT22;73393;51.946;20.140;2024-02-23T06:26:26;8.20;97.90
83466;DHT22;73393;51.946;20.140;2024-02-23T06:28:52;8.20;97.60
83466;DHT22;73393;51.946;20.140;2024-02-23T06:31:18;8.20;97.90
83466;DHT22;73393;51.946;20.140;2024-02-23T06:33:43;8.10;98.00
83466;DHT22;73393;51.946;20.140;2024-02-23T06:36:09;8.20;98.10
83466;DHT22;73393;51.946;20.140;2024-02-23T06:38:35;8.20;98.10
83466;DHT22;73393;51.946;20.140;2024-02-23T06:41:01;8.20;97.90
83466;DHT22;73393;51.946;20.140;2024-02-23T06:43:26;8.20;98.30
83466;DHT22;73393;51.946;20.140;2024-02-23T06:45:52;8.20;98.20
83466;DHT22;73393;51.946;20.140;2024-02-23T06:48:18;8.20;98.00
83466;DHT22;73393;51.946;20.140;2024-02-23T06:50:43;8.20;98.10
83466;DHT22;73393;51.946;20.140;2024-02-23T06:53:09;8.30;98.00
83466;DHT22;73393;51.946;20.140;2024-02-23T06:55:35;8.30;98.00
83466;DHT22;73393;51.946;20.140;2024-02-23T06:58:01;8.30;98.30
83466;DHT22;73393;51.946;20.140;2024-02-23T07:00:27;8.30;98.10
83466;DHT22;73393;51.946;20.140;2024-02-23T07:02:52;8.30;98.20
83466;DHT22;73393;51.946;20.140;2024-02-23T07:05:18;8.30;98.40
83466;DHT22;73393;51.946;20.140;2024-02-23T07:07:44;8.30;98.40
83466;DHT22;73393;51.946;20.140;2024-02-23T07:10:09;8.30;98.30
83466;DHT22;73393;51.946;20.140;2024-02-23T07:12:36;8.30;98.40
83466;DHT22;73393;51.946;20.140;2024-02-23T07:15:02;8.40;98.20
83466;DHT22;73393;51.946;20.140;2024-02-23T07:17:27;8.40;98.10
83466;DHT22;73393;51.946;20.140;2024-02-23T07:19:56;8.40;98.30
83466;DHT22;73393;51.946;20.140;2024-02-23T07:22:28;8.40;98.50
83466;DHT22;73393;51.946;20.140;2024-02-23T07:24:54;8.50;98.50
83466;DHT22;73393;51.946;20.140;2024-02-23T07:27:19;8.50;98.50
83466;DHT22;73393;51.946;20.140;2024-02-23T07:29:45;8.50;98.60
83466;DHT22;73393;51.946;20.140;2024-02-23T07:32:11;8.50;98.50
83466;DHT22;73393;51.946;20.140;2024-02-23T07:34:37;8.50;98.30
83466;DHT22;73393;51.946;20.140;2024-02-23T07:37:02;8.50;98.50
83466;DHT22;73393;51.946;20.140;2024-02-23T07:39:29;8.60;98.50
83466;DHT22;73393;51.946;20.140;2024-02-23T07:41:54;8.60;98.30
83466;DHT22;73393;51.946;20.140;2024-02-23T07:44:20;8.60;98.40
83466;DHT22;73393;51.946;20.140;2024-02-23T07:46:46;8.70;98.40
83466;DHT22;73393;51.946;20.140;2024-02-23T07:49:11;8.70;98.40
83466;DHT22;73393;51.946;20.140;2024-02-23T07:51:37;8.70;98.30
83466;DHT22;73393;51.946;20.140;2024-02-23T07:54:02;8.70;98.10
83466;DHT22;73393;51.946;20.140;2024-02-23T07:56:28;8.80;98.30
83466;DHT22;73393;51.946;20.140;2024-02-23T07:58:54;8.80;98.40
83466;DHT22;73393;51.946;20.140;2024-02-23T08:01:20;8.90;98.20
83466;DHT22;73393;51.946;20.140;2024-02-23T08:03:46;8.90;98.10
83466;DHT22;73393;51.946;20.140;2024-02-23T08:06:11;9.00;98.00
83466;DHT22;73393;51.946;20.140;2024-02-23T08:08:38;9.00;98.00
83466;DHT22;73393;51.946;20.140;2024-02-23T08:11:04;9.10;97.90
83466;DHT22;73393;51.946;20.140;2024-02-23T08:13:30;9.10;97.70
83466;DHT22;73393;51.946;20.140;2024-02-23T08:15:56;9.20;97.40
83466;DHT22;73393;51.946;20.140;2024-02-23T08:18:22;9.30;96.70
83466;DHT22;73393;51.946;20.140;2024-02-23T08:20:48;9.30;97.00
83466;DHT22;73393;51.946;20.140;2024-02-23T08:23:14;9.40;96.70
83466;DHT22;73393;51.946;20.140;2024-02-23T08:25:39;9.50;96.20
83466;DHT22;73393;51.946;20.140;2024-02-23T08:28:05;9.60;96.20
83466;DHT22;73393;51.946;20.140;2024-02-23T08:30:31;9.50;95.70
83466;DHT22;73393;51.946;20.140;2024-02-23T08:32:57;9.50;96.00
83466;DHT22;73393;51.946;20.140;2024-02-23T08:35:23;9.50;96.20
83466;DHT22;73393;51.946;20.140;2024-02-23T08:37:50;9.60;96.20
83466;DHT22;73393;51.946;20.140;2024-02-23T08:40:15;9.60;96.10
83466;DHT22;73393;51.946;20.140;2024-02-23T08:42:41;9.70;95.50
83466;DHT22;73393;51.946;20.140;2024-02-23T08:45:08;9.70;95.50
83466;DHT22;73393;51.946;20.140;2024-02-23T08:47:35;9.80;95.60
83466;DHT22;73393;51.946;20.140;2024-02-23T08:50:01;9.80;94.90
83466;DHT22;73393;51.946;20.140;2024-02-23T08:52:27;9.90;95.00
83466;DHT22;73393;51.946;20.140;2024-02-23T08:54:52;10.00;94.70
83466;DHT22;73393;51.946;20.140;2024-02-23T08:57:18;10.10;93.90
83466;DHT22;73393;51.946;20.140;2024-02-23T08:59:51;10.10;94.40
83466;DHT22;73393;51.946;20.140;2024-02-23T09:02:16;10.20;93.10
83466;DHT22;73393;51.946;20.140;2024-02-23T09:04:42;10.20;92.40
83466;DHT22;73393;51.946;20.140;2024-02-23T09:07:10;10.10;92.80
83466;DHT22;73393;51.946;20.140;2024-02-23T09:09:36;10.10;93.10
83466;DHT22;73393;51.946;20.140;2024-02-23T09:12:03;10.10;93.30
83466;DHT22;73393;51.946;20.140;2024-02-23T09:14:29;10.20;93.90
83466;DHT22;73393;51.946;20.140;2024-02-23T09:16:55;10.30;93.60
83466;DHT22;73393;51.946;20.140;2024-02-23T09:19:20;10.30;93.00
83466;DHT22;73393;51.946;20.140;2024-02-23T09:21:46;10.40;92.80
83466;DHT22;73393;51.946;20.140;2024-02-23T09:24:12;10.40;92.60
83466;DHT22;73393;51.946;20.140;2024-02-23T09:26:38;10.40;92.60
83466;DHT22;73393;51.946;20.140;2024-02-23T09:29:04;10.40;92.70
83466;DHT22;73393;51.946;20.140;2024-02-23T09:31:30;10.50;92.50
83466;DHT22;73393;51.946;20.140;2024-02-23T09:33:57;10.60;92.40
83466;DHT22;73393;51.946;20.140;2024-02-23T09:36:23;10.60;91.10
83466;DHT22;73393;51.946;20.140;2024-02-23T09:38:49;10.50;91.80
83466;DHT22;73393;51.946;20.140;2024-02-23T09:41:24;10.60;92.00
83466;DHT22;73393;51.946;20.140;2024-02-23T09:43:50;10.70;91.50
83466;DHT22;73393;51.946;20.140;2024-02-23T09:46:17;10.60;91.30
83466;DHT22;73393;51.946;20.140;2024-02-23T09:48:44;10.70;91.20
83466;DHT22;73393;51.946;20.140;2024-02-23T09:51:11;10.80;91.00
83466;DHT22;73393;51.946;20.140;2024-02-23T09:53:39;10.80;90.30
83466;DHT22;73393;51.946;20.140;2024-02-23T09:56:05;10.90;90.10
83466;DHT22;73393;51.946;20.140;2024-02-23T09:58:32;10.90;89.70
83466;DHT22;73393;51.946;20.140;2024-02-23T10:01:02;10.90;90.10
83466;DHT22;73393;51.946;20.140;2024-02-23T10:03:29;10.80;90.10
83466;DHT22;73393;51.946;20.140;2024-02-23T10:05:56;10.90;90.70
83466;DHT22;73393;51.946;20.140;2024-02-23T10:08:22;10.90;89.80
83466;DHT22;73393;51.946;20.140;2024-02-23T10:10:47;10.80;90.20
83466;DHT22;73393;51.946;20.140;2024-02-23T10:13:21;10.90;90.00
83466;DHT22;73393;51.946;20.140;2024-02-23T10:15:48;10.80;90.00
83466;DHT22;73393;51.946;20.140;2024-02-23T10:18:13;10.90;90.50
83466;DHT22;73393;51.946;20.140;2024-02-23T10:20:40;10.90;90.30
83466;DHT22;73393;51.946;20.140;2024-02-23T10:23:07;10.80;90.10
83466;DHT22;73393;51.946;20.140;2024-02-23T10:25:34;10.80;89.80
83466;DHT22;73393;51.946;20.140;2024-02-23T10:28:01;10.80;90.70
83466;DHT22;73393;51.946;20.140;2024-02-23T10:30:27;10.80;90.10
83466;DHT22;73393;51.946;20.140;2024-02-23T10:32:56;10.80;90.40
83466;DHT22;73393;51.946;20.140;2024-02-23T10:35:23;10.80;90.20
83466;DHT22;73393;51.946;20.140;2024-02-23T10:37:50;10.70;90.60
83466;DHT22;73393;51.946;20.140;2024-02-23T10:40:18;10.70;91.20
83466;DHT22;73393;51.946;20.140;2024-02-23T10:42:45;10.60;91.20
83466;DHT22;73393;51.946;20.140;2024-02-23T10:45:17;10.60;91.80
83466;DHT22;73393;51.946;20.140;2024-02-23T10:47:44;10.70;91.70
83466;DHT22;73393;51.946;20.140;2024-02-23T10:50:10;10.70;91.30
83466;DHT22;73393;51.946;20.140;2024-02-23T10:52:40;10.70;91.00
83466;DHT22;73393;51.946;20.140;2024-02-23T10:55:08;10.70;91.10
83466;DHT22;73393;51.946;20.140;2024-02-23T10:57:35;10.80;91.80
83466;DHT22;73393;51.946;20.140;2024-02-23T11:00:01;10.80;92.20
83466;DHT22;73393;51.946;20.140;2024-02-23T11:02:31;10.90;91.80
83466;DHT22;73393;51.946;20.140;2024-02-23T11:04:58;11.10;91.70
83466;DHT22;73393;51.946;20.140;2024-02-23T11:07:24;11.20;91.30
83466;DHT22;73393;51.946;20.140;2024-02-23T11:09:59;11.20;90.80
83466;DHT22;73393;51.946;20.140;2024-02-23T11:12:28;11.30;90.60
83466;DHT22;73393;51.946;20.140;2024-02-23T11:14:58;11.40;89.70
83466;DHT22;73393;51.946;20.140;2024-02-23T11:17:27;11.40;89.20
83466;DHT22;73393;51.946;20.140;2024-02-23T11:19:54;11.50;89.50
83466;DHT22;73393;51.946;20.140;2024-02-23T11:22:26;11.40;89.30
83466;DHT22;73393;51.946;20.140;2024-02-23T11:24:53;11.40;89.90
83466;DHT22;73393;51.946;20.140;2024-02-23T11:27:19;11.50;89.60
83466;DHT22;73393;51.946;20.140;2024-02-23T11:29:48;11.50;89.40
83466;DHT22;73393;51.946;20.140;2024-02-23T11:32:37;11.60;89.70
83466;DHT22;73393;51.946;20.140;2024-02-23T11:35:17;11.70;89.40
83466;DHT22;73393;51.946;20.140;2024-02-23T11:37:55;11.70;88.50
83466;DHT22;73393;51.946;20.140;2024-02-23T11:40:28;11.70;88.70
83466;DHT22;73393;51.946;20.140;2024-02-23T11:42:55;11.70;88.10
83466;DHT22;73393;51.946;20.140;2024-02-23T11:45:21;11.60;88.20
83466;DHT22;73393;51.946;20.140;2024-02-23T11:47:47;11.60;87.80
83466;DHT22;73393;51.946;20.140;2024-02-23T11:50:13;11.60;88.40
83466;DHT22;73393;51.946;20.140;2024-02-23T11:52:40;11.60;88.50
83466;DHT22;73393;51.946;20.140;2024-02-23T11:55:06;11.60;88.40
83466;DHT22;73393;51.946;20.140;2024-02-23T11:57:34;11.50;88.60
83466;DHT22;73393;51.946;20.140;2024-02-23T12:00:02;11.50;89.10
83466;DHT22;73393;51.946;20.140;2024-02-23T12:02:28;11.50;89.10
83466;DHT22;73393;51.946;20.140;2024-02-23T12:04:54;11.50;89.40
83466;DHT22;73393;51.946;20.140;2024-02-23T12:07:19;11.50;88.60
83466;DHT22;73393;51.946;20.140;2024-02-23T12:09:47;11.40;88.90
83466;DHT22;73393;51.946;20.140;2024-02-23T12:12:12;11.50;89.00
83466;DHT22;73393;51.946;20.140;2024-02-23T12:14:40;11.50;89.20
83466;DHT22;73393;51.946;20.140;2024-02-23T12:17:08;11.60;89.40
83466;DHT22;73393;51.946;20.140;2024-02-23T12:19:38;11.60;89.20
83466;DHT22;73393;51.946;20.140;2024-02-23T12:22:04;11.60;89.10
83466;DHT22;73393;51.946;20.140;2024-02-23T12:24:30;11.70;89.30
83466;DHT22;73393;51.946;20.140;2024-02-23T12:26:55;11.70;89.30
83466;DHT22;73393;51.946;20.140;2024-02-23T12:29:21;11.70;89.30
83466;DHT22;73393;51.946;20.140;2024-02-23T12:31:47;11.70;88.80
83466;DHT22;73393;51.946;20.140;2024-02-23T12:34:13;11.80;89.20
83466;DHT22;73393;51.946;20.140;2024-02-23T12:36:39;11.80;89.30
83466;DHT22;73393;51.946;20.140;2024-02-23T12:39:05;11.90;88.80
83466;DHT22;73393;51.946;20.140;2024-02-23T12:41:31;11.90;88.60
83466;DHT22;73393;51.946;20.140;2024-02-23T12:43:57;11.80;88.40
83466;DHT22;73393;51.946;20.140;2024-02-23T12:46:23;11.80;88.50
83466;DHT22;73393;51.946;20.140;2024-02-23T12:48:49;11.80;89.00
83466;DHT22;73393;51.946;20.140;2024-02-23T12:51:15;11.80;89.40
83466;DHT22;73393;51.946;20.140;2024-02-23T12:53:41;11.80;89.20
83466;DHT22;73393;51.946;20.140;2024-02-23T12:56:12;11.90;88.40
83466;DHT22;73393;51.946;20.140;2024-02-23T12:58:40;12.00;89.10
83466;DHT22;73393;51.946;20.140;2024-02-23T13:01:06;12.00;89.00
83466;DHT22;73393;51.946;20.140;2024-02-23T13:03:36;12.00;88.10
83466;DHT22;73393;51.946;20.140;2024-02-23T13:06:04;12.00;88.40
83466;DHT22;73393;51.946;20.140;2024-02-23T13:08:30;12.00;88.50
83466;DHT22;73393;51.946;20.140;2024-02-23T13:10:57;12.00;88.20
83466;DHT22;73393;51.946;20.140;2024-02-23T13:13:23;12.00;88.30
83466;DHT22;73393;51.946;20.140;2024-02-23T13:15:49;11.90;88.50
83466;DHT22;73393;51.946;20.140;2024-02-23T13:18:15;11.90;88.70
83466;DHT22;73393;51.946;20.140;2024-02-23T13:20:41;11.90;89.10
83466;DHT22;73393;51.946;20.140;2024-02-23T13:23:08;11.80;88.60
83466;DHT22;73393;51.946;20.140;2024-02-23T13:25:35;11.80;88.90
83466;DHT22;73393;51.946;20.140;2024-02-23T13:28:01;11.70;88.80
83466;DHT22;73393;51.946;20.140;2024-02-23T13:30:26;11.70;88.50
83466;DHT22;73393;51.946;20.140;2024-02-23T13:32:53;11.70;88.80
83466;DHT22;73393;51.946;20.140;2024-02-23T13:35:18;11.60;89.30
83466;DHT22;73393;51.946;20.140;2024-02-23T13:37:44;11.60;89.70
83466;DHT22;73393;51.946;20.140;2024-02-23T13:40:10;11.60;89.70
83466;DHT22;73393;51.946;20.140;2024-02-23T13:42:37;11.50;89.90
83466;DHT22;73393;51.946;20.140;2024-02-23T13:45:09;11.40;89.20
83466;DHT22;73393;51.946;20.140;2024-02-23T13:47:36;11.20;90.40
83466;DHT22;73393;51.946;20.140;2024-02-23T13:50:04;11.30;91.20
83466;DHT22;73393;51.946;20.140;2024-02-23T13:52:31;11.30;90.70
83466;DHT22;73393;51.946;20.140;2024-02-23T13:54:56;11.40;90.50
83466;DHT22;73393;51.946;20.140;2024-02-23T13:57:22;11.40;90.30
83466;DHT22;73393;51.946;20.140;2024-02-23T13:59:48;11.50;90.00
83466;DHT22;73393;51.946;20.140;2024-02-23T14:02:14;11.50;89.90
83466;DHT22;73393;51.946;20.140;2024-02-23T14:04:40;11.40;90.00
83466;DHT22;73393;51.946;20.140;2024-02-23T14:07:06;11.50;89.70
83466;DHT22;73393;51.946;20.140;2024-02-23T14:09:32;11.40;89.90
83466;DHT22;73393;51.946;20.140;2024-02-23T14:11:57;11.20;90.20
83466;DHT22;73393;51.946;20.140;2024-02-23T14:14:23;11.30;90.30
83466;DHT22;73393;51.946;20.140;2024-02-23T14:16:50;11.20;90.80
83466;DHT22;73393;51.946;20.140;2024-02-23T14:19:15;11.30;90.60
83466;DHT22;73393;51.946;20.140;2024-02-23T14:21:41;11.20;90.50
83466;DHT22;73393;51.946;20.140;2024-02-23T14:24:08;11.10;91.40
83466;DHT22;73393;51.946;20.140;2024-02-23T14:26:34;11.10;91.60
83466;DHT22;73393;51.946;20.140;2024-02-23T14:29:00;11.00;91.70
83466;DHT22;73393;51.946;20.140;2024-02-23T14:31:25;11.00;92.00
83466;DHT22;73393;51.946;20.140;2024-02-23T14:33:51;11.00;91.80
83466;DHT22;73393;51.946;20.140;2024-02-23T14:36:18;11.00;92.20
83466;DHT22;73393;51.946;20.140;2024-02-23T14:38:44;11.00;91.70
83466;DHT22;73393;51.946;20.140;2024-02-23T14:41:10;10.90;92.20
83466;DHT22;73393;51.946;20.140;2024-02-23T14:43:36;10.90;92.70
83466;DHT22;73393;51.946;20.140;2024-02-23T14:46:02;11.00;92.70
83466;DHT22;73393;51.946;20.140;2024-02-23T14:48:28;11.00;92.20
83466;DHT22;73393;51.946;20.140;2024-02-23T14:50:54;11.00;92.10
83466;DHT22;73393;51.946;20.140;2024-02-23T14:53:20;11.00;92.40
83466;DHT22;73393;51.946;20.140;2024-02-23T14:55:45;11.00;92.70
83466;DHT22;73393;51.946;20.140;2024-02-23T14:58:11;11.00;92.60
83466;DHT22;73393;51.946;20.140;2024-02-23T15:00:37;10.90;92.30
83466;DHT22;73393;51.946;20.140;2024-02-23T15:03:03;10.90;92.80
83466;DHT22;73393;51.946;20.140;2024-02-23T15:05:29;10.90;92.90
83466;DHT22;73393;51.946;20.140;2024-02-23T15:07:55;10.90;92.90
83466;DHT22;73393;51.946;20.140;2024-02-23T15:10:21;10.90;93.00
83466;DHT22;73393;51.946;20.140;2024-02-23T15:12:46;10.80;93.30
83466;DHT22;73393;51.946;20.140;2024-02-23T15:15:12;10.70;93.60
83466;DHT22;73393;51.946;20.140;2024-02-23T15:17:37;10.70;93.80
83466;DHT22;73393;51.946;20.140;2024-02-23T15:20:04;10.60;94.00